Fort Yukon, AK

8:08 AM AKDT on September 02, 2014 (GMT -0800)
Fort Yukon | Change Station
CLOSE
Current Station
Airport
Location: Fort Yukon,
Elevation: 430 ft
Nearby Weather Stations
Active Advisory: Wind Advisory Active Notice: Record Report

Elev 430 ft 66.57 °N, 145.27 °W | Updated 12 minutes ago

Mostly Cloudy
Mostly Cloudy
43 °F
Feels Like 36 °F
N
13
Wind Variable Wind from West
Gusts 20 mph

Today
High -- | Low -- °F
--% Chance of Precip.
Yesterday
High -- | Low -- °F
Precip. -- in
6:20 AM 9:02 PM
First Quarter, 52% visible
Pressure 29.53 in
Visibility 10.0 miles
Clouds Mostly Cloudy 2000 ft
Windchill 36 °F
Dew Point 37 °F
Humidity 81%
Rainfall 0.00 in
Snow Depth 2 in
UV 0 out of 12
Pollen Not available.
Air Quality Not available.
Flu Activity Not available.
METAR PFYU 021556Z 26011G17KT 10SM BKN020 06/03 A2953 RMK AO1

More Conditions Fewer Conditions

Pressure 29.53 in
Visibility 10.0 miles
Clouds Mostly Cloudy 2000 ft
Windchill 36 °F
Dew Point 37 °F
Humidity 81%
Rainfall 0.00 in
Snow Depth 2 in
UV 0 out of 12
Pollen Not available.
Air Quality Not available.
Flu Activity Not available.
METAR PFYU 021556Z 26011G17KT 10SM BKN020 06/03 A2953 RMK AO1

More Conditions Fewer Conditions

10-Day Weather Forecast

Almanac

Astronomy

Sep. 02, 2014 Rise Set
Actual Time 6:20 AM AKDT 9:02 PM AKDT
Civil Twilight 5:21 AM AKDT 10:01 PM AKDT
Nautical Twilight 3:54 AM AKDT 11:26 PM AKDT
Astronomical Twilight 2:15 AM AKDT 1:10 AM AKDT
Moon 5:27 PM AKDT 10:52 PM AKDT
Length of Visible Light 16h 39m
Length of Day
14h 41m
Tomorrow will be 7m 18s shorter.
First Quarter, 52% of the Moon is Illuminated
Today
First Quarter
Sep 8
Full
Sep 15
Last Quarter
Sep 24
New
Oct 1
First Quarter

Today's Extremes

State Highs State Lows

Community

WunderPhotos

Upload Photos

1,749,706 photos uploaded!

Nearby

Snow Depth

Station Depth Elevation
Fort Yukon 2 in 430 ft
Eagle Summit 1 in 3650 ft
Monument Creek 0 in 1850 ft
Little Chena Ridge 1 in 2000 ft
Upper Chena 2 in 2850 ft

Earthquake Activity

City Distance Mag. Time & Date
No recent earthquake activity has been reported nearby.
Minimum magnitude displayed is 2.5.

Coastal Water Temperatures

Place Temperature
No Stations Reporting

Nearby Weather Stations